Time;durP1;ratioP1;P1;durP2;ratioP2;P2;SDS_P1;SDS_P2;PMS_P1;PMS_P2;Temp;Humidity;BMP_temperature;BMP_pressure;BME280_temperature;BME280_humidity;BME280_pressure;Samples;Min_cycle;Max_cycle;Signal;HPM_P1;HPM_P2
2022/09/03 00:00:16;;;;;;;12.50;10.20;;;;;;;13.78;89.82;101405.80;108903;1234;59425;-71
2022/09/03 00:03:23;;;;;;;11.40;10.10;;;;;;;13.75;89.02;101407.27;108660;1235;74677;-70
2022/09/03 00:06:17;;;;;;;11.40;9.30;;;;;;;13.70;89.35;101408.84;108824;1234;72635;-70
2022/09/03 00:08:59;;;;;;;12.60;8.30;;;;;;;13.65;90.24;101411.33;108750;1235;69160;-72
2022/09/03 00:11:38;;;;;;;12.80;8.20;;;;;;;13.61;91.24;101402.75;108805;1235;73025;-72
2022/09/03 00:14:13;;;;;;;11.40;8.70;;;;;;;13.56;91.55;101399.62;108674;1233;61323;-71
2022/09/03 00:16:55;;;;;;;9.10;7.00;;;;;;;13.56;93.12;101400.30;108818;1233;60321;-71
2022/09/03 00:19:31;;;;;;;10.80;7.40;;;;;;;13.57;92.94;101404.44;108790;1234;72411;-71
2022/09/03 00:22:23;;;;;;;10.80;6.70;;;;;;;13.59;93.01;101403.92;108807;1233;70789;-73
2022/09/03 00:24:51;;;;;;;10.80;6.90;;;;;;;13.60;92.17;101397.17;108819;1233;70711;-73
2022/09/03 00:27:26;;;;;;;12.30;6.90;;;;;;;13.59;91.52;101396.61;108808;1233;73426;-72
2022/09/03 00:30:12;;;;;;;11.10;7.00;;;;;;;13.57;91.48;101401.50;108813;1233;60867;-72
2022/09/03 00:32:53;;;;;;;11.30;7.50;;;;;;;13.54;91.39;101402.55;108811;1233;61182;-70
2022/09/03 00:35:43;;;;;;;11.20;7.60;;;;;;;13.52;91.82;101393.05;108799;1233;72179;-69
2022/09/03 00:38:11;;;;;;;11.30;7.20;;;;;;;13.52;90.98;101393.89;108802;1233;70607;-73
2022/09/03 00:41:05;;;;;;;11.20;7.00;;;;;;;13.52;92.54;101393.95;108710;1235;69079;-71
2022/09/03 00:44:13;;;;;;;10.70;7.20;;;;;;;13.53;90.87;101395.60;108769;1234;74228;-71
2022/09/03 00:46:59;;;;;;;12.50;7.40;;;;;;;13.50;91.46;101391.23;108748;1235;62474;-73
2022/09/03 00:49:59;;;;;;;9.10;7.10;;;;;;;13.52;91.33;101392.39;108773;1234;61550;-71
2022/09/03 00:52:47;;;;;;;12.60;7.60;;;;;;;13.51;91.21;101393.31;108783;1235;73253;-72
2022/09/03 00:55:57;;;;;;;14.30;7.60;;;;;;;13.50;90.74;101395.13;108742;1235;70450;-71
2022/09/03 00:58:50;;;;;;;10.20;7.00;;;;;;;13.47;92.09;101397.25;108675;1235;69791;-71
2022/09/03 01:01:34;;;;;;;10.30;7.10;;;;;;;13.48;90.96;101397.56;108574;1233;73446;-71
2022/09/03 01:04:32;;;;;;;12.40;8.10;;;;;;;13.47;91.36;101397.27;108596;1233;63379;-72
2022/09/03 01:07:39;;;;;;;10.20;7.20;;;;;;;13.43;93.66;101398.95;108582;1233;59235;-71
2022/09/03 01:10:26;;;;;;;11.90;8.40;;;;;;;13.43;92.53;101399.28;108660;1233;74855;-69
2022/09/03 01:13:12;;;;;;;10.20;7.80;;;;;;;13.44;93.35;101401.33;108642;1233;70784;-71
2022/09/03 01:16:12;;;;;;;12.30;7.70;;;;;;;13.42;93.02;101399.89;108560;1233;70632;-69
2022/09/03 01:18:54;;;;;;;10.20;7.30;;;;;;;13.48;94.88;101397.73;108662;1233;74636;-71
2022/09/03 01:21:43;;;;;;;14.10;7.70;;;;;;;13.48;93.45;101398.45;108687;1233;61924;-70
2022/09/03 01:24:38;;;;;;;10.30;7.30;;;;;;;13.48;92.60;101397.17;107075;1233;2103015;-72
2022/09/03 01:27:42;;;;;;;13.00;7.30;;;;;;;13.47;91.75;101392.52;108693;1233;72989;-73
2022/09/03 01:30:17;;;;;;;;;;;;;;;13.53;94.07;101394.21;108619;1235;72465;-72
2022/09/03 01:33:13;;;;;;;12.10;7.70;;;;;;;13.57;94.03;101390.95;108635;1234;69203;-72
2022/09/03 01:35:50;;;;;;;11.30;7.80;;;;;;;13.67;92.87;101387.95;108655;1235;71719;-72
2022/09/03 01:38:37;;;;;;;11.00;6.90;;;;;;;13.65;93.52;101388.55;108756;1234;62075;-73
2022/09/03 01:44:49;;;;;;;10.60;7.10;;;;;;;13.72;93.08;101388.91;108903;1233;74549;-74
2022/09/03 01:47:56;;;;;;;9.60;6.80;;;;;;;13.75;92.68;101390.27;108574;1233;73004;-71
2022/09/03 01:50:53;;;;;;;12.10;7.00;;;;;;;13.78;92.23;101386.76;108470;1235;71445;-67
2022/09/03 01:54:19;;;;;;;10.70;6.80;;;;;;;13.80;92.19;101387.33;108546;1235;73373;-72
2022/09/03 01:57:19;;;;;;;12.20;6.90;;;;;;;13.86;92.38;101384.60;108637;1236;61635;-72
2022/09/03 02:00:12;;;;;;;11.80;7.20;;;;;;;13.90;92.23;101384.06;108843;1233;60703;-73
2022/09/03 02:02:49;;;;;;;10.10;7.10;;;;;;;13.88;92.85;101383.19;108879;1233;75024;-74
2022/09/03 02:05:25;;;;;;;10.50;7.10;;;;;;;13.83;92.72;101384.77;108790;1235;71931;-73
2022/09/03 02:08:02;;;;;;;10.50;7.00;;;;;;;13.85;92.57;101384.16;108936;1235;69925;-72
2022/09/03 02:10:54;;;;;;;9.40;6.90;;;;;;;13.84;93.01;101383.48;108893;1235;74428;-72
2022/09/03 02:13:31;;;;;;;9.10;6.70;;;;;;;13.82;92.78;101385.95;108882;1235;60881;-74
2022/09/03 02:16:04;;;;;;;12.00;7.30;;;;;;;13.79;93.23;101387.19;108848;1234;59517;-72
2022/09/03 02:18:40;;;;;;;10.70;7.50;;;;;;;13.79;93.57;101384.72;108899;1233;71711;-71
2022/09/03 02:21:09;;;;;;;11.90;7.10;;;;;;;13.80;93.90;101380.83;108714;1233;71314;-71
2022/09/03 02:23:39;;;;;;;9.00;6.80;;;;;;;13.80;93.75;101379.25;108784;1233;69531;-72
2022/09/03 02:26:10;;;;;;;9.00;6.60;;;;;;;13.78;93.91;101379.04;108725;1233;72534;-71
2022/09/03 02:28:38;;;;;;;10.40;6.80;;;;;;;13.76;94.10;101380.23;108840;1233;63417;-73
2022/09/03 02:31:05;;;;;;;13.00;7.90;;;;;;;13.76;94.46;101376.92;108736;1234;59416;-74
2022/09/03 02:33:38;;;;;;;10.50;7.10;;;;;;;13.67;95.17;101378.83;108838;1233;74031;-73
2022/09/03 02:36:11;;;;;;;9.90;7.00;;;;;;;13.73;95.94;101382.73;108817;1233;71837;-70
2022/09/03 02:38:41;;;;;;;12.20;7.90;;;;;;;13.75;95.52;101385.73;108659;1235;69158;-74
2022/09/03 02:41:13;;;;;;;11.10;7.90;;;;;;;13.74;95.82;101386.32;108827;1233;73198;-71
2022/09/03 02:44:11;;;;;;;13.50;8.00;;;;;;;13.74;95.66;101384.56;108819;1233;61930;-72
2022/09/03 02:47:03;;;;;;;12.50;6.60;;;;;;;13.77;94.54;101388.58;108861;1233;59687;-72
2022/09/03 02:49:31;;;;;;;11.30;6.70;;;;;;;13.74;93.96;101383.02;108806;1233;72870;-72
2022/09/03 02:52:08;;;;;;;12.70;8.10;;;;;;;13.72;94.02;101382.10;108887;1233;70755;-71
2022/09/03 02:54:38;;;;;;;11.70;7.30;;;;;;;13.74;94.46;101382.68;108803;1233;70181;-71
2022/09/03 02:57:09;;;;;;;10.60;7.50;;;;;;;13.75;94.23;101382.91;108879;1233;74229;-72
2022/09/03 02:59:38;;;;;;;10.20;6.90;;;;;;;13.77;94.12;101379.27;108780;1235;62613;-71
2022/09/03 03:02:07;;;;;;;10.90;7.30;;;;;;;13.78;93.95;101380.77;108752;1235;60934;-74
2022/09/03 03:04:35;;;;;;;10.60;7.30;;;;;;;13.74;94.56;101383.89;108590;1235;76033;-72
2022/09/03 03:07:02;;;;;;;10.00;7.20;;;;;;;13.70;94.86;101384.18;108732;1235;70387;-73
2022/09/03 03:09:30;;;;;;;9.70;7.20;;;;;;;13.69;94.66;101384.59;108541;1236;68690;-72
2022/09/03 03:11:57;;;;;;;13.80;7.20;;;;;;;13.66;94.88;101379.80;108757;1233;73510;-70
2022/09/03 03:14:25;;;;;;;10.00;6.20;;;;;;;13.65;95.08;101377.96;108820;1234;60959;-73
2022/09/03 03:16:53;;;;;;;10.10;6.90;;;;;;;13.64;94.42;101371.16;108841;1233;61180;-73
2022/09/03 03:19:20;;;;;;;12.00;7.50;;;;;;;13.65;94.81;101373.38;108804;1233;72587;-74
2022/09/03 03:21:47;;;;;;;9.50;6.20;;;;;;;13.63;93.93;101367.91;108732;1233;72444;-75
2022/09/03 03:24:15;;;;;;;9.60;6.50;;;;;;;13.63;93.25;101375.96;108580;1236;68670;-72
2022/09/03 03:26:42;;;;;;;9.50;6.40;;;;;;;13.62;92.55;101376.55;108878;1235;74219;-71
2022/09/03 03:29:16;;;;;;;7.40;5.70;;;;;;;13.61;92.64;101376.11;108846;1235;60897;-71
2022/09/03 03:31:44;;;;;;;9.90;6.00;;;;;;;13.58;92.56;101376.67;108633;1233;60669;-72
2022/09/03 03:34:12;;;;;;;11.20;5.90;;;;;;;13.59;92.61;101375.41;108807;1234;73328;-73
2022/09/03 03:36:39;;;;;;;8.20;5.10;;;;;;;13.60;92.55;101372.86;108625;1236;70580;-72
2022/09/03 03:39:07;;;;;;;9.30;5.70;;;;;;;13.58;92.44;101372.88;108817;1233;70458;-75
2022/09/03 03:41:38;;;;;;;7.60;5.00;;;;;;;13.55;92.02;101372.58;108757;1235;73039;-73
2022/09/03 03:44:07;;;;;;;7.20;5.30;;;;;;;13.51;91.75;101372.84;108830;1233;63035;-73
2022/09/03 03:46:38;;;;;;;7.10;4.90;;;;;;;13.50;91.83;101375.91;108611;1235;61952;-73
2022/09/03 03:49:07;;;;;;;9.20;5.10;;;;;;;13.50;92.07;101379.69;108697;1234;74143;-75
2022/09/03 03:51:36;;;;;;;7.70;5.40;;;;;;;13.50;91.17;101378.48;108848;1233;72107;-74
2022/09/03 03:54:04;;;;;;;10.30;5.50;;;;;;;13.50;91.78;101382.20;108906;1233;70983;-74
2022/09/03 03:56:34;;;;;;;8.30;4.90;;;;;;;13.51;92.35;101383.48;108422;1235;71552;-73
2022/09/03 03:59:02;;;;;;;9.10;5.70;;;;;;;13.49;91.90;101380.48;108281;1235;63091;-72
2022/09/03 04:01:31;;;;;;;13.20;5.70;;;;;;;13.53;93.03;101381.09;108647;1235;60195;-71
2022/09/03 04:03:59;;;;;;;8.60;5.40;;;;;;;13.58;94.08;101376.55;108788;1234;73723;-72
2022/09/03 04:06:28;;;;;;;11.10;7.70;;;;;;;13.58;92.49;101375.31;108815;1235;71003;-73
2022/09/03 04:08:55;;;;;;;9.20;5.40;;;;;;;13.61;92.78;101371.44;108746;1234;67811;-73
2022/09/03 04:11:24;;;;;;;9.30;4.90;;;;;;;13.61;92.05;101376.64;108613;1235;72298;-67
2022/09/03 04:13:53;;;;;;;7.70;4.60;;;;;;;13.59;91.51;101382.95;108541;1235;63517;-69
2022/09/03 04:16:24;;;;;;;9.70;4.80;;;;;;;13.55;90.38;101386.91;108768;1233;62491;-72
2022/09/03 04:18:55;;;;;;;8.00;5.20;;;;;;;13.57;90.32;101393.04;108936;1233;74385;-75
2022/09/03 04:21:28;;;;;;;9.70;5.70;;;;;;;13.58;90.06;101396.81;108674;1233;69941;-76
2022/09/03 04:23:57;;;;;;;7.90;5.40;;;;;;;13.62;91.41;101391.77;108862;1233;70442;-71
2022/09/03 04:26:30;;;;;;;13.00;5.20;;;;;;;13.68;93.16;101386.83;108556;1233;73835;-72
2022/09/03 04:29:01;;;;;;;8.50;5.00;;;;;;;13.69;92.52;101381.13;108520;1234;63422;-72
2022/09/03 04:31:29;;;;;;;12.20;5.60;;;;;;;13.69;92.95;101378.66;108720;1233;60407;-69
2022/09/03 04:33:58;;;;;;;7.90;4.90;;;;;;;13.69;93.26;101377.48;108632;1235;72594;-70
2022/09/03 04:36:29;;;;;;;11.20;5.50;;;;;;;13.65;92.86;101385.05;108430;1235;70719;-73
2022/09/03 04:39:00;;;;;;;8.60;4.70;;;;;;;13.61;91.70;101389.06;108727;1234;70699;-71
2022/09/03 04:41:30;;;;;;;8.10;4.50;;;;;;;13.60;90.01;101399.52;108527;1236;72393;-72
2022/09/03 04:43:58;;;;;;;6.30;4.20;;;;;;;13.62;90.58;101408.29;108845;1234;62375;-70
2022/09/03 04:46:31;;;;;;;8.60;4.70;;;;;;;13.63;90.78;101415.38;108641;1235;60219;-71
2022/09/03 04:48:59;;;;;;;;;;;;;;;13.65;91.13;101419.57;108704;1235;71710;-71
2022/09/03 04:51:28;;;;;;;6.20;4.30;;;;;;;13.69;90.92;101419.30;108737;1235;72687;-74
2022/09/03 04:54:01;;;;;;;7.60;4.60;;;;;;;13.67;90.64;101414.85;108727;1236;68600;-73
2022/09/03 04:56:32;;;;;;;7.30;4.50;;;;;;;13.65;91.02;101417.34;108966;1233;72419;-73
2022/09/03 04:59:04;;;;;;;6.70;3.90;;;;;;;13.61;90.34;101420.05;108727;1234;60330;-76
2022/09/03 05:01:34;;;;;;;7.50;3.90;;;;;;;13.59;90.33;101424.27;108931;1233;59664;-74
2022/09/03 05:04:03;;;;;;;7.30;4.30;;;;;;;13.54;89.97;101429.10;108563;1234;71613;-74
2022/09/03 05:06:33;;;;;;;6.30;3.60;;;;;;;13.58;89.40;101427.98;108983;1233;69830;-76
2022/09/03 05:09:01;;;;;;;7.50;3.60;;;;;;;13.59;89.42;101418.46;108970;1233;68668;-71
2022/09/03 05:11:29;;;;;;;6.20;4.00;;;;;;;13.60;88.93;101416.48;108909;1233;74258;-76
2022/09/03 05:13:59;;;;;;;7.00;3.90;;;;;;;13.53;88.30;101415.37;108680;1235;63468;-78
2022/09/03 05:16:29;;;;;;;5.90;3.20;;;;;;;13.56;88.03;101419.05;108953;1233;59899;-74
2022/09/03 05:18:59;;;;;;;6.70;3.30;;;;;;;13.54;87.04;101419.85;109100;1233;74752;-72
2022/09/03 05:21:28;;;;;;;6.90;3.50;;;;;;;13.53;86.34;101424.13;109103;1233;70254;-73
2022/09/03 05:23:57;;;;;;;6.40;3.60;;;;;;;13.57;85.93;101428.02;109182;1235;68175;-71
2022/09/03 05:26:28;;;;;;;8.20;3.60;;;;;;;13.64;86.40;101432.40;109312;1234;72230;-72
2022/09/03 05:29:07;;;;;;;6.50;3.70;;;;;;;13.69;85.60;101425.76;109063;1233;61553;-70
2022/09/03 05:31:40;;;;;;;7.90;4.40;;;;;;;13.70;85.65;101418.34;109154;1233;60395;-73
2022/09/03 05:34:09;;;;;;;7.10;3.40;;;;;;;13.65;85.56;101419.42;109050;1233;75083;-72
2022/09/03 05:36:37;;;;;;;11.30;4.10;;;;;;;13.65;85.58;101415.53;108926;1232;70005;-69
2022/09/03 05:39:05;;;;;;;6.90;3.60;;;;;;;13.59;85.53;101419.86;108709;1235;70576;-74
2022/09/03 05:41:33;;;;;;;7.50;3.70;;;;;;;13.58;84.45;101421.13;109010;1233;72688;-72
2022/09/03 05:44:02;;;;;;;5.10;3.10;;;;;;;13.56;84.81;101418.14;108861;1233;61063;-74
2022/09/03 05:46:32;;;;;;;6.80;3.10;;;;;;;13.55;84.42;101420.65;108783;1235;59979;-74
2022/09/03 05:49:02;;;;;;;6.60;3.30;;;;;;;13.53;84.31;101414.16;108725;1235;73099;-74
2022/09/03 05:51:30;;;;;;;8.70;3.40;;;;;;;13.58;84.07;101410.83;108839;1233;71788;-74
2022/09/03 05:53:58;;;;;;;5.50;3.60;;;;;;;13.62;84.55;101411.08;108561;1233;69628;-74
2022/09/03 05:56:30;;;;;;;6.00;3.20;;;;;;;13.63;84.24;101417.29;108708;1236;72517;-77
2022/09/03 05:59:00;;;;;;;8.40;3.30;;;;;;;13.57;85.07;101423.13;108802;1235;60768;-76
2022/09/03 06:01:34;;;;;;;5.70;3.30;;;;;;;13.60;84.15;101421.75;108782;1235;62380;-75
2022/09/03 06:04:06;;;;;;;6.10;3.20;;;;;;;13.66;84.35;101425.25;108751;1234;73940;-78
2022/09/03 06:06:37;;;;;;;5.90;3.40;;;;;;;13.71;84.23;101433.67;108546;1235;70384;-78
2022/09/03 06:09:12;;;;;;;6.80;3.20;;;;;;;13.76;83.22;101439.75;108681;1236;69761;-79
2022/09/03 06:11:41;;;;;;;5.10;2.90;;;;;;;13.75;83.52;101445.73;108470;1236;70174;-74
2022/09/03 06:14:12;;;;;;;6.50;2.80;;;;;;;13.78;84.28;101446.04;108729;1234;63097;-72
2022/09/03 06:16:51;;;;;;;5.00;3.10;;;;;;;13.74;82.90;101440.98;108942;1233;59575;-72
2022/09/03 06:19:19;;;;;;;11.20;6.60;;;;;;;13.78;83.29;101439.45;108905;1233;74807;-65
2022/09/03 06:21:46;;;;;;;6.20;3.20;;;;;;;13.74;83.53;101438.34;108780;1233;70991;-66
2022/09/03 06:24:17;;;;;;;7.20;3.10;;;;;;;13.72;84.15;101437.93;108711;1233;68678;-64
2022/09/03 06:26:45;;;;;;;8.70;3.30;;;;;;;13.72;84.02;101431.80;108447;1235;72425;-63
2022/09/03 06:29:13;;;;;;;4.70;2.80;;;;;;;13.70;83.88;101432.14;108815;1233;63588;-67
2022/09/03 06:31:41;;;;;;;8.30;2.90;;;;;;;13.69;83.01;101432.23;108883;1233;60714;-71
2022/09/03 06:34:09;;;;;;;8.50;3.60;;;;;;;13.71;83.33;101437.70;108959;1233;73374;-70
2022/09/03 06:36:40;;;;;;;6.50;3.10;;;;;;;13.70;83.84;101436.70;108803;1235;71957;-71
2022/09/03 06:39:07;;;;;;;6.40;2.90;;;;;;;13.66;82.97;101437.50;108540;1235;71358;-69
2022/09/03 06:41:35;;;;;;;10.70;5.20;;;;;;;13.62;82.90;101436.64;108794;1233;73979;-70
2022/09/03 06:44:10;;;;;;;4.90;3.30;;;;;;;13.60;83.36;101436.73;108940;1233;62640;-70
2022/09/03 06:46:41;;;;;;;7.40;3.30;;;;;;;13.57;84.23;101440.10;108819;1233;60501;-72
2022/09/03 06:49:10;;;;;;;6.50;4.40;;;;;;;13.61;83.92;101444.38;108675;1235;74413;-70
2022/09/03 06:51:42;;;;;;;5.90;3.10;;;;;;;13.58;82.80;101449.70;108623;1235;72426;-75
2022/09/03 06:54:11;;;;;;;5.50;2.90;;;;;;;13.54;83.14;101451.85;108830;1233;70076;-68
2022/09/03 06:56:40;;;;;;;6.00;3.40;;;;;;;13.53;82.57;101451.73;108770;1235;71555;-66
2022/09/03 06:59:12;;;;;;;5.10;3.10;;;;;;;13.55;82.99;101449.21;108882;1234;60507;-68
2022/09/03 07:01:42;;;;;;;5.10;3.10;;;;;;;13.47;83.76;101450.45;108739;1235;60488;-67
2022/09/03 07:04:18;;;;;;;7.60;3.90;;;;;;;13.55;83.70;101452.00;108611;1233;72308;-69
2022/09/03 07:06:47;;;;;;;5.80;3.00;;;;;;;13.61;85.28;101458.55;108772;1233;72314;-71
2022/09/03 07:09:17;;;;;;;6.10;3.50;;;;;;;13.63;83.29;101466.65;108862;1234;69144;-70
2022/09/03 07:11:45;;;;;;;4.70;3.10;;;;;;;13.71;83.96;101475.11;108945;1233;71775;-69
2022/09/03 07:14:17;;;;;;;5.40;3.50;;;;;;;13.64;84.28;101481.42;108806;1235;62378;-70
2022/09/03 07:16:46;;;;;;;5.90;3.30;;;;;;;13.66;84.04;101487.38;108957;1232;61563;-69
2022/09/03 07:19:14;;;;;;;6.30;3.20;;;;;;;13.70;84.29;101491.14;108988;1233;72080;-70
2022/09/03 07:21:44;;;;;;;7.50;3.60;;;;;;;13.69;85.01;101497.47;108940;1233;72212;-70
2022/09/03 07:24:20;;;;;;;6.60;3.40;;;;;;;13.71;83.51;101500.12;108436;1233;72392;-68
2022/09/03 07:26:48;;;;;;;9.10;3.40;;;;;;;13.72;83.70;101502.20;108720;1233;73555;-69
2022/09/03 07:29:18;;;;;;;7.40;3.20;;;;;;;13.70;84.03;101502.01;108751;1233;62655;-67
2022/09/03 07:31:47;;;;;;;7.10;3.90;;;;;;;13.73;84.89;101504.63;108650;1236;59389;-70
2022/09/03 07:34:15;;;;;;;6.90;3.70;;;;;;;13.69;84.71;101500.48;108881;1233;74777;-72
2022/09/03 07:36:46;;;;;;;6.70;4.00;;;;;;;13.67;85.63;101496.97;108706;1233;72525;-71
2022/09/03 07:39:16;;;;;;;6.30;4.50;;;;;;;13.59;85.30;101496.48;108907;1233;69786;-71
2022/09/03 07:41:45;;;;;;;8.00;3.70;;;;;;;13.60;85.75;101502.74;108876;1233;74794;-71
2022/09/03 07:44:18;;;;;;;8.10;4.20;;;;;;;13.58;85.75;101501.98;108854;1233;62509;-72
2022/09/03 07:46:46;;;;;;;6.70;4.30;;;;;;;13.61;86.18;101503.02;108670;1235;60248;-70
2022/09/03 07:49:13;;;;;;;6.80;3.60;;;;;;;13.64;86.50;101505.43;108540;1235;73418;-68
2022/09/03 07:51:41;;;;;;;7.60;3.90;;;;;;;13.59;85.81;101501.20;108965;1234;71219;-74
2022/09/03 07:54:10;;;;;;;6.70;3.60;;;;;;;13.64;86.52;101505.79;108887;1235;69694;-72
2022/09/03 07:56:40;;;;;;;6.40;3.60;;;;;;;13.58;87.58;101506.71;108986;1235;72618;-74
2022/09/03 07:59:10;;;;;;;6.30;3.50;;;;;;;13.55;86.41;101498.91;109002;1235;61861;-74
2022/09/03 08:01:38;;;;;;;9.00;4.00;;;;;;;13.55;86.37;101500.27;108979;1234;61160;-69
2022/09/03 08:04:09;;;;;;;6.70;4.60;;;;;;;13.51;87.58;101510.20;108990;1235;73675;-71
2022/09/03 08:06:38;;;;;;;5.80;3.40;;;;;;;13.45;86.78;101507.61;108778;1235;70360;-73
2022/09/03 08:09:10;;;;;;;5.40;3.60;;;;;;;13.49;86.96;101503.85;108795;1235;68585;-72
2022/09/03 08:11:42;;;;;;;6.10;3.80;;;;;;;13.51;87.35;101507.40;109063;1233;73578;-72
2022/09/03 08:14:12;;;;;;;5.70;3.40;;;;;;;13.53;88.23;101508.30;109083;1233;61569;-72
2022/09/03 08:16:46;;;;;;;5.60;3.00;;;;;;;13.52;87.10;101505.41;108873;1233;59523;-72
2022/09/03 08:19:19;;;;;;;6.00;3.40;;;;;;;13.53;86.76;101508.49;108974;1233;74485;-75
2022/09/03 08:21:47;;;;;;;5.80;3.70;;;;;;;13.58;87.90;101507.93;109099;1233;71279;-73
2022/09/03 08:24:19;;;;;;;4.30;3.00;;;;;;;13.61;87.66;101508.83;108893;1234;69677;-72
2022/09/03 08:26:47;;;;;;;6.60;3.60;;;;;;;13.65;86.54;101507.27;108866;1234;74465;-77
2022/09/03 08:29:20;;;;;;;6.10;3.40;;;;;;;13.65;86.84;101509.37;108979;1233;60307;-75
2022/09/03 08:31:47;;;;;;;5.80;3.40;;;;;;;13.67;85.89;101511.66;108636;1236;59525;-74
2022/09/03 08:34:16;;;;;;;7.50;3.60;;;;;;;13.68;86.50;101515.45;108658;1236;72597;-70
2022/09/03 08:36:45;;;;;;;7.50;3.20;;;;;;;13.60;87.90;101518.66;109033;1233;72312;-73
2022/09/03 08:39:13;;;;;;;5.80;3.50;;;;;;;13.62;86.36;101513.10;108915;1233;69834;-74
2022/09/03 08:41:49;;;;;;;5.30;3.90;;;;;;;13.68;87.58;101516.30;108780;1234;73345;-73
2022/09/03 08:44:57;;;;;;;5.40;3.50;;;;;;;13.77;88.36;101522.50;108927;1235;63234;-75
2022/09/03 08:47:31;;;;;;;6.80;3.60;;;;;;;13.85;86.96;101521.06;109065;1233;59387;-75
2022/09/03 08:50:11;;;;;;;6.60;3.50;;;;;;;13.87;87.91;101523.22;109040;1233;71818;-68
2022/09/03 08:52:50;;;;;;;5.30;4.20;;;;;;;13.89;88.38;101519.48;109177;1233;72209;-75
2022/09/03 08:55:18;;;;;;;8.30;3.80;;;;;;;13.99;88.72;101520.04;109000;1233;69410;-71
2022/09/03 08:57:55;;;;;;;7.40;4.30;;;;;;;14.05;87.77;101518.64;108988;1233;73968;-74
2022/09/03 09:00:23;;;;;;;5.50;3.60;;;;;;;14.04;88.65;101514.20;108848;1233;62266;-73
2022/09/03 09:03:29;;;;;;;6.40;3.60;;;;;;;14.10;85.89;101515.15;108773;1233;61754;-72
2022/09/03 09:06:19;;;;;;;10.10;4.20;;;;;;;14.14;86.09;101518.01;108290;1236;72496;-73
2022/09/03 09:09:15;;;;;;;10.60;5.50;;;;;;;14.12;86.04;101513.94;108874;1233;72414;-79
2022/09/03 09:12:19;;;;;;;6.60;3.60;;;;;;;14.20;85.80;101509.13;108841;1233;69252;-76
2022/09/03 09:15:15;;;;;;;4.00;3.10;;;;;;;14.14;85.04;101495.98;108784;1233;75720;-74
2022/09/03 09:18:06;;;;;;;5.60;3.60;;;;;;;14.26;85.25;101503.96;108824;1233;62267;-74
2022/09/03 09:21:10;;;;;;;5.70;3.60;;;;;;;14.32;87.49;101502.11;108964;1233;61208;-68
2022/09/03 09:23:52;;;;;;;8.00;3.30;;;;;;;14.41;86.06;101505.30;109149;1232;74179;-79
2022/09/03 09:26:21;;;;;;;6.60;3.50;;;;;;;14.45;85.55;101507.65;108285;1233;72313;-71
2022/09/03 09:29:06;;;;;;;5.50;3.60;;;;;;;14.51;84.52;101507.48;108883;1233;70622;-72
2022/09/03 09:31:38;;;;;;;8.10;3.60;;;;;;;14.48;83.24;101503.66;108583;1235;73530;-73
2022/09/03 09:34:07;;;;;;;7.90;4.20;;;;;;;14.47;83.87;101500.33;109009;1235;61616;-72
2022/09/03 09:37:12;;;;;;;5.40;3.10;;;;;;;14.40;84.80;101491.83;109013;1234;60583;-75
2022/09/03 09:39:52;;;;;;;6.30;3.80;;;;;;;14.39;84.02;101492.31;108638;1236;73795;-79
2022/09/03 09:42:22;;;;;;;5.30;3.70;;;;;;;14.40;84.09;101494.85;108957;1235;72211;-72
2022/09/03 09:44:49;;;;;;;6.30;3.60;;;;;;;14.39;84.15;101499.81;109032;1234;68570;-75
2022/09/03 09:47:29;;;;;;;7.10;3.70;;;;;;;14.38;84.16;101498.71;108504;1235;70355;-72
2022/09/03 09:50:01;;;;;;;5.10;3.50;;;;;;;14.28;84.37;101501.06;108717;1236;62143;-75
2022/09/03 09:52:31;;;;;;;7.20;3.80;;;;;;;14.44;83.49;101496.82;108568;1235;62282;-74
2022/09/03 09:55:18;;;;;;;7.80;4.00;;;;;;;14.45;83.47;101494.65;108871;1233;73658;-75
2022/09/03 09:57:45;;;;;;;6.90;4.50;;;;;;;14.33;82.89;101491.70;108737;1233;69658;-75
2022/09/03 10:00:16;;;;;;;7.50;4.00;;;;;;;14.37;83.40;101491.44;108715;1234;69801;-71
2022/09/03 10:02:53;;;;;;;8.50;4.40;;;;;;;14.38;82.90;101493.83;108916;1233;71823;-72
2022/09/03 10:05:25;;;;;;;9.00;5.10;;;;;;;14.35;83.95;101492.25;108769;1233;62753;-73
2022/09/03 10:08:20;;;;;;;9.00;4.40;;;;;;;14.30;84.65;101489.09;108776;1233;61699;-70
2022/09/03 10:10:49;;;;;;;6.00;3.90;;;;;;;14.33;84.50;101490.84;108783;1233;73033;-73
2022/09/03 10:13:22;;;;;;;7.10;4.20;;;;;;;14.26;83.37;101489.77;108927;1233;69675;-74
2022/09/03 10:16:14;;;;;;;;;;;;;;;14.31;85.03;101490.44;108792;1233;69593;-73
2022/09/03 10:19:06;;;;;;;7.30;5.60;;;;;;;14.30;85.63;101487.55;109011;1233;74216;-74
2022/09/03 10:22:09;;;;;;;7.30;3.60;;;;;;;14.29;85.13;101491.11;108554;1233;61758;-70
2022/09/03 10:24:51;;;;;;;5.70;3.90;;;;;;;14.35;84.84;101486.34;108998;1235;60581;-75
2022/09/03 10:27:20;;;;;;;5.60;3.70;;;;;;;14.39;85.62;101486.36;108937;1235;73129;-72
2022/09/03 10:29:49;;;;;;;5.40;3.90;;;;;;;14.48;86.64;101489.52;108651;1235;69636;-72
2022/09/03 10:32:33;;;;;;;5.20;3.60;;;;;;;14.57;86.21;101488.88;108916;1235;68724;-69
2022/09/03 10:35:33;;;;;;;5.60;3.30;;;;;;;14.56;85.94;101492.60;108735;1236;71188;-72
2022/09/03 10:38:10;;;;;;;6.30;3.40;;;;;;;14.57;86.45;101496.20;108940;1235;60509;-74
2022/09/03 10:40:50;;;;;;;6.00;4.10;;;;;;;14.72;85.59;101499.06;108849;1235;59614;-74
2022/09/03 10:43:34;;;;;;;5.60;3.90;;;;;;;14.75;84.92;101497.65;109013;1233;73589;-75
2022/09/03 10:46:16;;;;;;;5.40;3.60;;;;;;;14.86;85.25;101489.40;109031;1233;72877;-75
2022/09/03 10:49:18;;;;;;;6.00;3.80;;;;;;;14.94;82.79;101485.11;108944;1233;69688;-78
2022/09/03 10:52:10;;;;;;;6.10;3.90;;;;;;;15.05;84.28;101482.50;108993;1233;72068;-73
2022/09/03 10:55:31;;;;;;;6.60;3.80;;;;;;;15.03;83.45;101485.05;108865;1233;61002;-76
2022/09/03 10:58:37;;;;;;;6.20;3.50;;;;;;;14.99;83.28;101489.06;108941;1233;61234;-75
2022/09/03 11:01:34;;;;;;;6.20;3.70;;;;;;;14.70;84.07;101490.98;109057;1233;73005;-79
2022/09/03 11:04:38;;;;;;;5.70;3.30;;;;;;;14.58;83.03;101487.52;109045;1233;72286;-75
2022/09/03 11:07:12;;;;;;;5.20;3.80;;;;;;;14.69;82.79;101486.55;109038;1233;68384;-76
2022/09/03 11:10:15;;;;;;;6.50;3.40;;;;;;;14.73;83.51;101477.95;108838;1233;71242;-73
2022/09/03 11:13:01;;;;;;;5.50;3.60;;;;;;;14.74;83.32;101479.10;108987;1233;60618;-73
2022/09/03 11:15:47;;;;;;;5.30;3.60;;;;;;;14.92;83.27;101474.23;109084;1233;59808;-75
2022/09/03 11:18:33;;;;;;;8.20;3.60;;;;;;;15.03;82.54;101475.81;108688;1236;72579;-74
2022/09/03 11:21:06;;;;;;;7.80;4.00;;;;;;;15.27;81.21;101474.79;109027;1235;70328;-73
2022/09/03 11:23:44;;;;;;;5.00;3.90;;;;;;;15.40;81.90;101472.52;108937;1235;69650;-73
2022/09/03 11:26:17;;;;;;;;;;;;;;;15.46;81.56;101471.33;108875;1233;74256;-74
2022/09/03 11:29:24;;;;;;;5.70;3.30;;;;;;;15.72;78.98;101469.24;108921;1233;63300;-79
2022/09/03 11:32:01;;;;;;;6.10;3.30;;;;;;;15.62;76.36;101472.27;108889;1235;60164;-80
2022/09/03 11:34:43;;;;;;;5.30;3.10;;;;;;;15.66;75.52;101475.67;109019;1233;72679;-79
2022/09/03 11:37:23;;;;;;;5.50;3.30;;;;;;;15.73;75.93;101482.34;108382;1236;71843;-78
2022/09/03 11:40:17;;;;;;;5.70;3.40;;;;;;;15.54;76.51;101478.20;108633;1235;71756;-77
2022/09/03 11:42:46;;;;;;;4.90;3.50;;;;;;;15.64;76.31;101475.69;108559;1236;72774;-79
2022/09/03 11:45:34;;;;;;;6.30;3.60;;;;;;;15.59;75.57;101478.85;108516;1235;61389;-82
2022/09/03 11:48:29;;;;;;;7.30;3.20;;;;;;;15.68;75.44;101477.77;108905;1235;60039;-75
2022/09/03 11:51:03;;;;;;;6.40;3.30;;;;;;;15.77;74.44;101478.30;108684;1233;74242;-81
2022/09/03 11:53:39;;;;;;;4.30;3.30;;;;;;;15.81;74.95;101461.61;108801;1233;72749;-80
2022/09/03 11:56:06;;;;;;;6.00;3.70;;;;;;;15.96;76.22;101470.24;108849;1236;68651;-77
2022/09/03 11:58:45;;;;;;;5.50;3.70;;;;;;;16.02;76.00;101469.32;109214;1233;74421;-80
2022/09/03 12:01:17;;;;;;;5.10;3.10;;;;;;;16.16;73.87;101457.31;108483;1233;63663;-83
2022/09/03 12:03:57;;;;;;;5.60;3.00;;;;;;;16.27;72.00;101457.23;109157;1233;61793;-73